Ashford, Washington
Current Conditions -  °F | °C
As of 12:58 AM on Thursday 27 Nov 2014 (Local Time) from KGRF Reporting Station
Light Rain Light Rain  
Wind Chill: 59°   Ceiling: 4700
Heat Index: 59°   Visibility: 10mi
Dew Point: 43°   Wind: 12mph
Humidity: 56%   Direction: 170°S
Pressure: 29.9"   Gusts: 20mph
Location:  46.76°N, 122.03°W
Report Text: KGRF 270858Z AUTO 17010G17KT 140V200 10SM -RA OVC047 15/06 A2990 RMK AO2 RAB0855DZE0855 SLP129 P0000 60000 T01490062 55001 $
Loading
Personal Weather Stations






























Interactive Weather Map New forecast layout! Learn more

10-Day Weather Forecast

Advertisements
Track Severe Weather on mobile